Temp: 16.4°C   Baro: 1016.2mb
  Wind: 2.0mph   Dir: NW (309°)
  Rain: 0.6mm (0.0mm/hr)
  Solar: 111W/m2  Hum: 72%
 
Bath Spa Weather Station Historical Data
Daily Summary for August 05, 2020 Units:  Both    English   Metric
Daily Weekly Monthly Yearly Custom
  High: Low: Average:
Temperature: 67.9 °F /  19.9 °C 61.6 °F /  16.4 °C 64.1 °F /  17.8 °C
Dew Point: 61.1 °F /  16.2 °C 56.4 °F /  13.6 °C 59.6 °F /  15.3 °C
Humidity: 90% 77% 86%
Wind Speed: 12.6mph /  20.3km/h - 5.3mph /  8.5km/h
Wind Gust: 22mph /  35.4km/h - -
Wind- - SW
Pressure: 29.92 in /  1013.1 hPa 29.85 in /  1010.7 hPa -
Precipitation: 0.00 in /  0 mm    
Historical Graphs
 
 
Tabular Data for August 05, 2020
Time Temperature Dew Point Pressure Wind Wind Speed Wind Gust Humidity Rainfall Rate (Hourly) solar
00:04 61.6 °F /  16.4 °C 56.4 °F /  13.6 °C 29.91in /  1012.8hPa SW 6.7mph /  10.8km/h 10mph /  16.1km/h 83% 0.00in /  0mm 0 W/m2
00:09 61.7 °F /  16.5 °C 56.5 °F /  13.6 °C 29.91in /  1012.8hPa SW 3.9mph /  6.3km/h 10mph /  16.1km/h 83% 0.00in /  0mm 0 W/m2
00:13 61.6 °F /  16.4 °C 56.4 °F /  13.6 °C 29.90in /  1012.4hPa SW 4mph /  6.4km/h 10mph /  16.1km/h 83% 0.00in /  0mm 0 W/m2
00:19 61.7 °F /  16.5 °C 56.5 °F /  13.6 °C 29.90in /  1012.4hPa SW 5.8mph /  9.3km/h 10mph /  16.1km/h 83% 0.00in /  0mm 0 W/m2
00:24 61.7 °F /  16.5 °C 56.5 °F /  13.6 °C 29.90in /  1012.4hPa SSW 4.2mph /  6.8km/h 10mph /  16.1km/h 83% 0.00in /  0mm 0 W/m2
00:29 61.7 °F /  16.5 °C 56.5 °F /  13.6 °C 29.90in /  1012.4hPa SSW 3.8mph /  6.1km/h 7mph /  11.3km/h 83% 0.00in /  0mm 0 W/m2
00:34 61.7 °F /  16.5 °C 56.6 °F /  13.7 °C 29.90in /  1012.4hPa SSW 3.6mph /  5.8km/h 7mph /  11.3km/h 83.2% 0.00in /  0mm 0 W/m2
00:39 61.7 °F /  16.5 °C 56.8 °F /  13.8 °C 29.89in /  1012.1hPa SSW 4.6mph /  7.4km/h 8mph /  12.9km/h 84% 0.00in /  0mm 0 W/m2
00:44 61.7 °F /  16.5 °C 56.8 °F /  13.8 °C 29.89in /  1012.1hPa SSW 5.2mph /  8.4km/h 12mph /  19.3km/h 84% 0.00in /  0mm 0 W/m2
00:49 61.8 °F /  16.6 °C 56.9 °F /  13.8 °C 29.89in /  1012.1hPa SSW 4.1mph /  6.6km/h 10mph /  16.1km/h 84% 0.00in /  0mm 0 W/m2
00:54 61.8 °F /  16.6 °C 56.9 °F /  13.8 °C 29.89in /  1012.1hPa SSW 2.9mph /  4.7km/h 9mph /  14.5km/h 84% 0.00in /  0mm 0 W/m2
00:59 61.8 °F /  16.6 °C 56.9 °F /  13.8 °C 29.89in /  1012.1hPa SSW 4.1mph /  6.6km/h 8mph /  12.9km/h 84% 0.00in /  0mm 0 W/m2
01:04 61.8 °F /  16.6 °C 56.8 °F /  13.8 °C 29.89in /  1012.1hPa SSW 3.2mph /  5.1km/h 8mph /  12.9km/h 84% 0.00in /  0mm 0 W/m2
01:09 61.7 °F /  16.5 °C 56.8 °F /  13.8 °C 29.89in /  1012.1hPa South 3.6mph /  5.8km/h 8mph /  12.9km/h 84% 0.00in /  0mm 0 W/m2
01:14 61.7 °F /  16.5 °C 56.8 °F /  13.8 °C 29.89in /  1012.1hPa SSW 4.7mph /  7.6km/h 8mph /  12.9km/h 84% 0.00in /  0mm 0 W/m2
01:19 61.6 °F /  16.4 °C 56.8 °F /  13.8 °C 29.89in /  1012.1hPa SSW 2.8mph /  4.5km/h 8mph /  12.9km/h 84% 0.00in /  0mm 0 W/m2
01:24 61.7 °F /  16.5 °C 56.8 °F /  13.8 °C 29.89in /  1012.1hPa SSW 2mph /  3.2km/h 5mph /  8km/h 84% 0.00in /  0mm 0 W/m2
01:29 61.7 °F /  16.5 °C 56.8 °F /  13.8 °C 29.89in /  1012.1hPa SW 3.2mph /  5.1km/h 5mph /  8km/h 84% 0.00in /  0mm 0 W/m2
01:34 61.7 °F /  16.5 °C 56.8 °F /  13.8 °C 29.89in /  1012.1hPa SSW 2.3mph /  3.7km/h 5mph /  8km/h 84% 0.00in /  0mm 0 W/m2
01:39 61.7 °F /  16.5 °C 56.8 °F /  13.8 °C 29.89in /  1012.1hPa West 2.5mph /  4km/h 7mph /  11.3km/h 84% 0.00in /  0mm 0 W/m2
01:44 61.9 °F /  16.6 °C 57 °F /  13.9 °C 29.89in /  1012.1hPa West 1.8mph /  2.9km/h 4mph /  6.4km/h 84% 0.00in /  0mm 0 W/m2
01:49 61.9 °F /  16.6 °C 57 °F /  13.9 °C 29.89in /  1012.1hPa West 0.8mph /  1.3km/h 3mph /  4.8km/h 84% 0.00in /  0mm 0 W/m2
01:54 61.9 °F /  16.6 °C 57 °F /  13.9 °C 29.89in /  1012.1hPa SW 2.8mph /  4.5km/h 5mph /  8km/h 84% 0.00in /  0mm 0 W/m2
01:59 62 °F /  16.7 °C 57.1 °F /  13.9 °C 29.88in /  1011.7hPa WSW 3.7mph /  6km/h 7mph /  11.3km/h 84% 0.00in /  0mm 0 W/m2
02:04 62.1 °F /  16.7 °C 57.2 °F /  14 °C 29.88in /  1011.7hPa WSW 5.2mph /  8.4km/h 8mph /  12.9km/h 84% 0.00in /  0mm 0 W/m2
02:09 62.1 °F /  16.7 °C 57.2 °F /  14 °C 29.88in /  1011.7hPa SSW 3.2mph /  5.1km/h 10mph /  16.1km/h 83.8% 0.00in /  0mm 0 W/m2
02:14 62.2 °F /  16.8 °C 57 °F /  13.9 °C 29.88in /  1011.7hPa SW 4.6mph /  7.4km/h 10mph /  16.1km/h 83% 0.00in /  0mm 0 W/m2
02:19 62.3 °F /  16.8 °C 57.1 °F /  13.9 °C 29.88in /  1011.7hPa SW 6.5mph /  10.5km/h 10mph /  16.1km/h 83% 0.00in /  0mm 0 W/m2
02:24 62.4 °F /  16.9 °C 57.2 °F /  14 °C 29.88in /  1011.7hPa SSW 4.8mph /  7.7km/h 10mph /  16.1km/h 83% 0.00in /  0mm 0 W/m2
02:29 62.5 °F /  16.9 °C 57.4 °F /  14.1 °C 29.88in /  1011.7hPa SW 6mph /  9.7km/h 12mph /  19.3km/h 83.4% 0.00in /  0mm 0 W/m2
02:34 62.6 °F /  17 °C 57.7 °F /  14.3 °C 29.88in /  1011.7hPa SW 3.6mph /  5.8km/h 12mph /  19.3km/h 84% 0.00in /  0mm 0 W/m2
02:39 62.7 °F /  17.1 °C 57.8 °F /  14.3 °C 29.88in /  1011.7hPa SW 3.2mph /  5.1km/h 8mph /  12.9km/h 84% 0.00in /  0mm 0 W/m2
02:44 62.6 °F /  17 °C 57.7 °F /  14.3 °C 29.88in /  1011.7hPa WSW 5.4mph /  8.7km/h 11mph /  17.7km/h 84% 0.00in /  0mm 0 W/m2
02:49 62.6 °F /  17 °C 57.7 °F /  14.3 °C 29.87in /  1011.4hPa WSW 5.9mph /  9.5km/h 13mph /  20.9km/h 84% 0.00in /  0mm 0 W/m2
02:54 62.5 °F /  16.9 °C 57.6 °F /  14.2 °C 29.88in /  1011.7hPa WNW 4.2mph /  6.8km/h 6mph /  9.7km/h 84% 0.00in /  0mm 0 W/m2
02:59 62.4 °F /  16.9 °C 57.6 °F /  14.2 °C 29.88in /  1011.7hPa WSW 3.2mph /  5.1km/h 7mph /  11.3km/h 84% 0.00in /  0mm 0 W/m2
03:04 62.4 °F /  16.9 °C 57.6 °F /  14.2 °C 29.87in /  1011.4hPa SW 3.6mph /  5.8km/h 9mph /  14.5km/h 84% 0.00in /  0mm 0 W/m2
03:09 62.4 °F /  16.9 °C 57.7 °F /  14.3 °C 29.87in /  1011.4hPa SW 7.1mph /  11.4km/h 11mph /  17.7km/h 84.4% 0.00in /  0mm 0 W/m2
03:14 62.4 °F /  16.9 °C 57.9 °F /  14.4 °C 29.87in /  1011.4hPa SW 4.5mph /  7.2km/h 11mph /  17.7km/h 85% 0.00in /  0mm 0 W/m2
03:19 62.4 °F /  16.9 °C 57.9 °F /  14.4 °C 29.86in /  1011.1hPa WSW 6.5mph /  10.5km/h 10mph /  16.1km/h 85% 0.00in /  0mm 0 W/m2
03:24 62.4 °F /  16.9 °C 57.9 °F /  14.4 °C 29.86in /  1011.1hPa WSW 5.6mph /  9km/h 11mph /  17.7km/h 85% 0.00in /  0mm 0 W/m2
03:29 62.4 °F /  16.9 °C 57.9 °F /  14.4 °C 29.87in /  1011.4hPa West 4.2mph /  6.8km/h 14mph /  22.5km/h 85% 0.00in /  0mm 0 W/m2
03:34 62.4 °F /  16.9 °C 57.9 °F /  14.4 °C 29.87in /  1011.4hPa WSW 3.2mph /  5.1km/h 14mph /  22.5km/h 85% 0.00in /  0mm 0 W/m2
03:39 62.2 °F /  16.8 °C 57.7 °F /  14.3 °C 29.87in /  1011.4hPa West 4.1mph /  6.6km/h 6mph /  9.7km/h 85% 0.00in /  0mm 0 W/m2
03:44 62.2 °F /  16.8 °C 57.9 °F /  14.4 °C 29.87in /  1011.4hPa West 2.7mph /  4.3km/h 7mph /  11.3km/h 85.8% 0.00in /  0mm 0 W/m2
03:49 62.2 °F /  16.8 °C 57.9 °F /  14.4 °C 29.87in /  1011.4hPa West 5mph /  8km/h 9mph /  14.5km/h 86% 0.00in /  0mm 0 W/m2
03:54 62.2 °F /  16.8 °C 57.9 °F /  14.4 °C 29.86in /  1011.1hPa WSW 4.4mph /  7.1km/h 9mph /  14.5km/h 86% 0.00in /  0mm 0 W/m2
03:59 62.2 °F /  16.8 °C 57.9 °F /  14.4 °C 29.86in /  1011.1hPa WSW 5.6mph /  9km/h 9mph /  14.5km/h 86% 0.00in /  0mm 0 W/m2
04:04 62.2 °F /  16.8 °C 57.9 °F /  14.4 °C 29.86in /  1011.1hPa WSW 4.7mph /  7.6km/h 9mph /  14.5km/h 86% 0.00in /  0mm 0 W/m2
04:09 62.2 °F /  16.8 °C 57.9 °F /  14.4 °C 29.86in /  1011.1hPa SW 3.7mph /  6km/h 7mph /  11.3km/h 86% 0.00in /  0mm 0 W/m2
04:14 62.2 °F /  16.8 °C 58.3 °F /  14.6 °C 29.86in /  1011.1hPa SW 6.8mph /  10.9km/h 12mph /  19.3km/h 86.8% 0.00in /  0mm 0 W/m2
04:19 62.4 °F /  16.9 °C 58.5 °F /  14.7 °C 29.86in /  1011.1hPa WSW 3.3mph /  5.3km/h 9mph /  14.5km/h 87% 0.00in /  0mm 0 W/m2
04:24 62.3 °F /  16.8 °C 58.4 °F /  14.7 °C 29.86in /  1011.1hPa WSW 5mph /  8km/h 9mph /  14.5km/h 87% 0.00in /  0mm 0 W/m2
04:29 62.3 °F /  16.8 °C 58.4 °F /  14.7 °C 29.86in /  1011.1hPa WSW 5.3mph /  8.5km/h 12mph /  19.3km/h 87% 0.00in /  0mm 0 W/m2
04:34 62.2 °F /  16.8 °C 58.3 °F /  14.6 °C 29.86in /  1011.1hPa WSW 3.2mph /  5.1km/h 8mph /  12.9km/h 87% 0.00in /  0mm 0 W/m2
04:39 62.2 °F /  16.8 °C 58.3 °F /  14.6 °C 29.86in /  1011.1hPa SW 4mph /  6.4km/h 9mph /  14.5km/h 87% 0.00in /  0mm 0 W/m2
04:44 62.2 °F /  16.8 °C 58.3 °F /  14.6 °C 29.86in /  1011.1hPa SW 4.2mph /  6.8km/h 9mph /  14.5km/h 87% 0.00in /  0mm 0 W/m2
04:49 62.2 °F /  16.8 °C 58.5 °F /  14.7 °C 29.86in /  1011.1hPa SSW 7.2mph /  11.6km/h 14mph /  22.5km/h 87.8% 0.00in /  0mm 0 W/m2
04:54 62.2 °F /  16.8 °C 58.6 °F /  14.8 °C 29.86in /  1011.1hPa SSW 5.4mph /  8.7km/h 13mph /  20.9km/h 88% 0.00in /  0mm 0 W/m2
04:59 62.2 °F /  16.8 °C 58.6 °F /  14.8 °C 29.86in /  1011.1hPa SW 5.6mph /  9km/h 12mph /  19.3km/h 88% 0.00in /  0mm 0 W/m2
05:04 62.2 °F /  16.8 °C 58.6 °F /  14.8 °C 29.86in /  1011.1hPa SW 6mph /  9.7km/h 12mph /  19.3km/h 88% 0.00in /  0mm 0 W/m2
05:09 62.2 °F /  16.8 °C 58.6 °F /  14.8 °C 29.86in /  1011.1hPa SW 4.4mph /  7.1km/h 11mph /  17.7km/h 88% 0.00in /  0mm 0 W/m2
05:14 62.2 °F /  16.8 °C 58.6 °F /  14.8 °C 29.86in /  1011.1hPa WSW 3.5mph /  5.6km/h 10mph /  16.1km/h 88% 0.00in /  0mm 0 W/m2
05:19 62.1 °F /  16.7 °C 58.5 °F /  14.7 °C 29.86in /  1011.1hPa West 3.9mph /  6.3km/h 9mph /  14.5km/h 88% 0.00in /  0mm 0 W/m2
05:24 62.1 °F /  16.7 °C 58.7 °F /  14.8 °C 29.86in /  1011.1hPa SW 4.8mph /  7.7km/h 9mph /  14.5km/h 88.6% 0.00in /  0mm 0 W/m2
05:29 62.1 °F /  16.7 °C 58.8 °F /  14.9 °C 29.86in /  1011.1hPa SW 3mph /  4.8km/h 7mph /  11.3km/h 89% 0.00in /  0mm 0 W/m2
05:34 62.1 °F /  16.7 °C 58.8 °F /  14.9 °C 29.86in /  1011.1hPa WSW 3.2mph /  5.1km/h 7mph /  11.3km/h 89% 0.00in /  0mm 0 W/m2
05:39 62.1 °F /  16.7 °C 58.8 °F /  14.9 °C 29.86in /  1011.1hPa West 3.2mph /  5.1km/h 7mph /  11.3km/h 89% 0.00in /  0mm 0 W/m2
05:44 62 °F /  16.7 °C 58.7 °F /  14.8 °C 29.86in /  1011.1hPa WSW 4.8mph /  7.7km/h 8mph /  12.9km/h 89% 0.00in /  0mm 0 W/m2
05:49 61.9 °F /  16.6 °C 58.6 °F /  14.8 °C 29.86in /  1011.1hPa WSW 3.5mph /  5.6km/h 7mph /  11.3km/h 89% 0.00in /  0mm 0 W/m2
05:54 61.9 °F /  16.6 °C 58.9 °F /  14.9 °C 29.86in /  1011.1hPa SW 2.5mph /  4km/h 6mph /  9.7km/h 89.8% 0.00in /  0mm 0 W/m2
05:59 61.9 °F /  16.6 °C 59 °F /  15 °C 29.86in /  1011.1hPa WSW 2.1mph /  3.4km/h 6mph /  9.7km/h 90% 0.00in /  0mm 0 W/m2
06:04 61.9 °F /  16.6 °C 59 °F /  15 °C 29.86in /  1011.1hPa SW 4.4mph /  7.1km/h 9mph /  14.5km/h 90% 0.00in /  0mm 5 W/m2
06:09 61.9 °F /  16.6 °C 59 °F /  15 °C 29.86in /  1011.1hPa WSW 5.2mph /  8.4km/h 10mph /  16.1km/h 90% 0.00in /  0mm 5 W/m2
06:14 61.8 °F /  16.6 °C 58.9 °F /  14.9 °C 29.86in /  1011.1hPa SW 4.1mph /  6.6km/h 8mph /  12.9km/h 90% 0.00in /  0mm 5 W/m2
06:19 61.7 °F /  16.5 °C 58.8 °F /  14.9 °C 29.86in /  1011.1hPa WSW 4mph /  6.4km/h 8mph /  12.9km/h 90% 0.00in /  0mm 7 W/m2
06:24 61.9 °F /  16.6 °C 59 °F /  15 °C 29.86in /  1011.1hPa WSW 6.7mph /  10.8km/h 10mph /  16.1km/h 90% 0.00in /  0mm 12 W/m2
06:29 61.9 °F /  16.6 °C 59 °F /  15 °C 29.86in /  1011.1hPa SW 5.6mph /  9km/h 11mph /  17.7km/h 90% 0.00in /  0mm 11 W/m2
06:34 61.9 °F /  16.6 °C 59 °F /  15 °C 29.86in /  1011.1hPa SW 3.7mph /  6km/h 11mph /  17.7km/h 90% 0.00in /  0mm 14 W/m2
06:39 61.9 °F /  16.6 °C 59 °F /  15 °C 29.86in /  1011.1hPa SW 4mph /  6.4km/h 10mph /  16.1km/h 90% 0.00in /  0mm 16 W/m2
06:44 62.1 °F /  16.7 °C 59.2 °F /  15.1 °C 29.86in /  1011.1hPa SSW 6.2mph /  10km/h 11mph /  17.7km/h 90% 0.00in /  0mm 21 W/m2
06:49 62.1 °F /  16.7 °C 59.2 °F /  15.1 °C 29.86in /  1011.1hPa SW 4.8mph /  7.7km/h 9mph /  14.5km/h 90% 0.00in /  0mm 23 W/m2
06:54 62.1 °F /  16.7 °C 59.2 °F /  15.1 °C 29.86in /  1011.1hPa SW 4.6mph /  7.4km/h 10mph /  16.1km/h 90% 0.00in /  0mm 19 W/m2
06:59 62.1 °F /  16.7 °C 59.2 °F /  15.1 °C 29.86in /  1011.1hPa SW 3.2mph /  5.1km/h 9mph /  14.5km/h 90% 0.00in /  0mm 21 W/m2
07:04 62.1 °F /  16.7 °C 59.2 °F /  15.1 °C 29.86in /  1011.1hPa SW 4.5mph /  7.2km/h 9mph /  14.5km/h 90% 0.00in /  0mm 23 W/m2
07:09 62.1 °F /  16.7 °C 59.2 °F /  15.1 °C 29.86in /  1011.1hPa SW 4.5mph /  7.2km/h 9mph /  14.5km/h 90% 0.00in /  0mm 51 W/m2
07:14 62.2 °F /  16.8 °C 59.2 °F /  15.1 °C 29.86in /  1011.1hPa SSW 2mph /  3.2km/h 6mph /  9.7km/h 90% 0.00in /  0mm 65 W/m2
07:19 62.2 °F /  16.8 °C 59.2 °F /  15.1 °C 29.86in /  1011.1hPa SW 2.1mph /  3.4km/h 5mph /  8km/h 90% 0.00in /  0mm 56 W/m2
07:24 62.4 °F /  16.9 °C 59.4 °F /  15.2 °C 29.86in /  1011.1hPa South 3.5mph /  5.6km/h 7mph /  11.3km/h 90% 0.00in /  0mm 51 W/m2
07:29 62.4 °F /  16.9 °C 59.4 °F /  15.2 °C 29.86in /  1011.1hPa SW 3.1mph /  5km/h 6mph /  9.7km/h 90% 0.00in /  0mm 53 W/m2
07:34 62.5 °F /  16.9 °C 59.4 °F /  15.2 °C 29.86in /  1011.1hPa SSW 3.7mph /  6km/h 6mph /  9.7km/h 90% 0.00in /  0mm 46 W/m2
07:39 62.6 °F /  17 °C 59.5 °F /  15.3 °C 29.86in /  1011.1hPa SSW 3.6mph /  5.8km/h 7mph /  11.3km/h 90% 0.00in /  0mm 21 W/m2
07:44 62.6 °F /  17 °C 59.5 °F /  15.3 °C 29.86in /  1011.1hPa SW 3.2mph /  5.1km/h 7mph /  11.3km/h 90% 0.00in /  0mm 35 W/m2
07:48 62.7 °F /  17.1 °C 59.6 °F /  15.3 °C 29.86in /  1011.1hPa SW 4.8mph /  7.7km/h 8mph /  12.9km/h 89.8% 0.00in /  0mm 40 W/m2
07:54 62.8 °F /  17.1 °C 59.5 °F /  15.3 °C 29.86in /  1011.1hPa SSW 5.2mph /  8.4km/h 11mph /  17.7km/h 89% 0.00in /  0mm 30 W/m2
07:59 62.8 °F /  17.1 °C 59.5 °F /  15.3 °C 29.86in /  1011.1hPa SW 2.6mph /  4.2km/h 11mph /  17.7km/h 89% 0.00in /  0mm 49 W/m2
08:04 62.8 °F /  17.1 °C 59.5 °F /  15.3 °C 29.86in /  1011.1hPa SW 4.5mph /  7.2km/h 7mph /  11.3km/h 89% 0.00in /  0mm 53 W/m2
08:09 63 °F /  17.2 °C 59.7 °F /  15.4 °C 29.86in /  1011.1hPa SSW 5.4mph /  8.7km/h 9mph /  14.5km/h 89% 0.00in /  0mm 100 W/m2
08:14 63 °F /  17.2 °C 59.8 °F /  15.4 °C 29.86in /  1011.1hPa SSW 5.1mph /  8.2km/h 10mph /  16.1km/h 89% 0.00in /  0mm 123 W/m2
08:19 63.1 °F /  17.3 °C 59.7 °F /  15.4 °C 29.86in /  1011.1hPa SSW 5.9mph /  9.5km/h 10mph /  16.1km/h 88.4% 0.00in /  0mm 132 W/m2
08:24 63.2 °F /  17.3 °C 59.9 °F /  15.5 °C 29.86in /  1011.1hPa SSW 4.6mph /  7.4km/h 14mph /  22.5km/h 88.8% 0.00in /  0mm 162 W/m2
08:29 63.3 °F /  17.4 °C 59.7 °F /  15.4 °C 29.86in /  1011.1hPa South 4.4mph /  7.1km/h 14mph /  22.5km/h 88% 0.00in /  0mm 165 W/m2
08:34 63.3 °F /  17.4 °C 59.7 °F /  15.4 °C 29.86in /  1011.1hPa South 7.4mph /  11.9km/h 13mph /  20.9km/h 88% 0.00in /  0mm 176 W/m2
08:39 63.3 °F /  17.4 °C 59.7 °F /  15.4 °C 29.87in /  1011.4hPa South 6.1mph /  9.8km/h 13mph /  20.9km/h 88% 0.00in /  0mm 107 W/m2
08:44 63.3 °F /  17.4 °C 59.7 °F /  15.4 °C 29.87in /  1011.4hPa SSW 3.2mph /  5.1km/h 9mph /  14.5km/h 88% 0.00in /  0mm 109 W/m2
08:49 63.3 °F /  17.4 °C 59.7 °F /  15.4 °C 29.87in /  1011.4hPa SSW 4.3mph /  6.9km/h 9mph /  14.5km/h 88% 0.00in /  0mm 141 W/m2
08:54 63.4 °F /  17.4 °C 59.8 °F /  15.4 °C 29.86in /  1011.1hPa SSW 5.6mph /  9km/h 10mph /  16.1km/h 88% 0.00in /  0mm 192 W/m2
08:59 63.6 °F /  17.6 °C 60 °F /  15.6 °C 29.87in /  1011.4hPa South 5.2mph /  8.4km/h 8mph /  12.9km/h 88% 0.00in /  0mm 179 W/m2
09:04 63.7 °F /  17.6 °C 60.1 °F /  15.6 °C 29.87in /  1011.4hPa South 3.6mph /  5.8km/h 8mph /  12.9km/h 88% 0.00in /  0mm 74 W/m2
09:09 63.7 °F /  17.6 °C 60.1 °F /  15.6 °C 29.87in /  1011.4hPa South 4.2mph /  6.8km/h 11mph /  17.7km/h 88% 0.00in /  0mm 88 W/m2
09:14 63.5 °F /  17.5 °C 59.9 °F /  15.5 °C 29.87in /  1011.4hPa South 5.2mph /  8.4km/h 10mph /  16.1km/h 88% 0.00in /  0mm 69 W/m2
09:19 63.3 °F /  17.4 °C 59.7 °F /  15.4 °C 29.87in /  1011.4hPa South 3.4mph /  5.5km/h 9mph /  14.5km/h 88% 0.00in /  0mm 74 W/m2
09:24 63.3 °F /  17.4 °C 59.8 °F /  15.4 °C 29.87in /  1011.4hPa South 2.9mph /  4.7km/h 6mph /  9.7km/h 88.2% 0.00in /  0mm 70 W/m2
09:29 63.2 °F /  17.3 °C 60 °F /  15.6 °C 29.87in /  1011.4hPa South 3.3mph /  5.3km/h 9mph /  14.5km/h 89% 0.00in /  0mm 74 W/m2
09:34 63.3 °F /  17.4 °C 60.1 °F /  15.6 °C 29.87in /  1011.4hPa SW 2.2mph /  3.5km/h 6mph /  9.7km/h 89% 0.00in /  0mm 91 W/m2
09:39 63.3 °F /  17.4 °C 60.1 °F /  15.6 °C 29.87in /  1011.4hPa SSW 4.1mph /  6.6km/h 7mph /  11.3km/h 89% 0.00in /  0mm 104 W/m2
09:44 63.3 °F /  17.4 °C 60.1 °F /  15.6 °C 29.87in /  1011.4hPa SSW 4.3mph /  6.9km/h 11mph /  17.7km/h 89% 0.00in /  0mm 104 W/m2
09:49 63.3 °F /  17.4 °C 60.1 °F /  15.6 °C 29.87in /  1011.4hPa SW 5.8mph /  9.3km/h 11mph /  17.7km/h 89% 0.00in /  0mm 93 W/m2
09:54 63.4 °F /  17.4 °C 60.2 °F /  15.7 °C 29.87in /  1011.4hPa SSW 6.5mph /  10.5km/h 10mph /  16.1km/h 89% 0.00in /  0mm 132 W/m2
09:59 63.6 °F /  17.6 °C 60.3 °F /  15.7 °C 29.86in /  1011.1hPa SW 2.9mph /  4.7km/h 8mph /  12.9km/h 88.8% 0.00in /  0mm 202 W/m2
10:04 63.8 °F /  17.7 °C 60.2 °F /  15.7 °C 29.86in /  1011.1hPa SSW 3.5mph /  5.6km/h 8mph /  12.9km/h 88% 0.00in /  0mm 209 W/m2
10:09 63.9 °F /  17.7 °C 60.3 °F /  15.7 °C 29.86in /  1011.1hPa SSW 5.4mph /  8.7km/h 12mph /  19.3km/h 88% 0.00in /  0mm 165 W/m2
10:14 63.8 °F /  17.7 °C 60.2 °F /  15.7 °C 29.86in /  1011.1hPa SW 4.3mph /  6.9km/h 12mph /  19.3km/h 88% 0.00in /  0mm 127 W/m2
10:19 63.9 °F /  17.7 °C 60.3 °F /  15.7 °C 29.86in /  1011.1hPa SSW 4.6mph /  7.4km/h 9mph /  14.5km/h 88% 0.00in /  0mm 134 W/m2
10:24 63.9 °F /  17.7 °C 60.3 °F /  15.7 °C 29.86in /  1011.1hPa SSW 5.8mph /  9.3km/h 13mph /  20.9km/h 88% 0.00in /  0mm 135 W/m2
10:29 64 °F /  17.8 °C 60.4 °F /  15.8 °C 29.86in /  1011.1hPa SSW 5.4mph /  8.7km/h 14mph /  22.5km/h 88% 0.00in /  0mm 190 W/m2
10:34 64 °F /  17.8 °C 60.3 °F /  15.7 °C 29.86in /  1011.1hPa SSW 7.1mph /  11.4km/h 12mph /  19.3km/h 87.8% 0.00in /  0mm 176 W/m2
10:39 64 °F /  17.8 °C 60.2 °F /  15.7 °C 29.86in /  1011.1hPa SW 5.2mph /  8.4km/h 13mph /  20.9km/h 87.4% 0.00in /  0mm 105 W/m2
10:44 63.9 °F /  17.7 °C 60.3 °F /  15.7 °C 29.86in /  1011.1hPa SSW 5.2mph /  8.4km/h 10mph /  16.1km/h 88% 0.00in /  0mm 86 W/m2
10:49 63.9 °F /  17.7 °C 60.3 °F /  15.7 °C 29.86in /  1011.1hPa SW 3.2mph /  5.1km/h 8mph /  12.9km/h 88% 0.00in /  0mm 83 W/m2
10:54 64 °F /  17.8 °C 60.4 °F /  15.8 °C 29.86in /  1011.1hPa SSW 3.5mph /  5.6km/h 7mph /  11.3km/h 88% 0.00in /  0mm 127 W/m2
10:59 63.9 °F /  17.7 °C 60.3 °F /  15.7 °C 29.86in /  1011.1hPa SW 4.6mph /  7.4km/h 10mph /  16.1km/h 88% 0.00in /  0mm 287 W/m2
11:04 64 °F /  17.8 °C 60.4 °F /  15.8 °C 29.86in /  1011.1hPa SSW 5.7mph /  9.2km/h 8mph /  12.9km/h 88% 0.00in /  0mm 232 W/m2
11:09 64 °F /  17.8 °C 60.4 °F /  15.8 °C 29.86in /  1011.1hPa South 5.6mph /  9km/h 16mph /  25.7km/h 88% 0.00in /  0mm 220 W/m2
11:14 64.1 °F /  17.8 °C 60.5 °F /  15.8 °C 29.86in /  1011.1hPa SW 5.2mph /  8.4km/h 10mph /  16.1km/h 87.8% 0.00in /  0mm 141 W/m2
11:19 64.3 °F /  17.9 °C 60.3 °F /  15.7 °C 29.86in /  1011.1hPa SW 3.5mph /  5.6km/h 9mph /  14.5km/h 87% 0.00in /  0mm 258 W/m2
11:24 64.6 °F /  18.1 °C 60.6 °F /  15.9 °C 29.86in /  1011.1hPa South 5.4mph /  8.7km/h 12mph /  19.3km/h 87% 0.00in /  0mm 230 W/m2
11:29 64.6 °F /  18.1 °C 60.6 °F /  15.9 °C 29.87in /  1011.4hPa SW 6.7mph /  10.8km/h 15mph /  24.1km/h 87% 0.00in /  0mm 343 W/m2
11:34 64.7 °F /  18.2 °C 60.7 °F /  15.9 °C 29.87in /  1011.4hPa SW 9.6mph /  15.4km/h 16mph /  25.7km/h 87% 0.00in /  0mm 343 W/m2
11:39 64.6 °F /  18.1 °C 60.5 °F /  15.8 °C 29.87in /  1011.4hPa South 5.6mph /  9km/h 16mph /  25.7km/h 86.6% 0.00in /  0mm 301 W/m2
11:43 64.6 °F /  18.1 °C 60.6 °F /  15.9 °C 29.87in /  1011.4hPa South 7.2mph /  11.6km/h 15mph /  24.1km/h 87% 0.00in /  0mm 183 W/m2
11:49 64.2 °F /  17.9 °C 60.1 °F /  15.6 °C 29.87in /  1011.4hPa SSW 5.8mph /  9.3km/h 15mph /  24.1km/h 86.4% 0.00in /  0mm 190 W/m2
11:54 64 °F /  17.8 °C 60.1 °F /  15.6 °C 29.87in /  1011.4hPa WSW 6.4mph /  10.3km/h 11mph /  17.7km/h 87% 0.00in /  0mm 97 W/m2
11:59 63.9 °F /  17.7 °C 60 °F /  15.6 °C 29.87in /  1011.4hPa SSW 3.7mph /  6km/h 10mph /  16.1km/h 87.2% 0.00in /  0mm 322 W/m2
12:04 63.8 °F /  17.7 °C 60.2 °F /  15.7 °C 29.87in /  1011.4hPa SSW 4.6mph /  7.4km/h 8mph /  12.9km/h 88% 0.00in /  0mm 376 W/m2
12:09 63.7 °F /  17.6 °C 60.1 °F /  15.6 °C 29.86in /  1011.1hPa South 6.3mph /  10.1km/h 11mph /  17.7km/h 88% 0.00in /  0mm 178 W/m2
12:14 63.7 °F /  17.6 °C 60.1 °F /  15.6 °C 29.86in /  1011.1hPa South 5.5mph /  8.9km/h 11mph /  17.7km/h 88% 0.00in /  0mm 236 W/m2
12:19 64 °F /  17.8 °C 60.4 °F /  15.8 °C 29.86in /  1011.1hPa SSW 4.8mph /  7.7km/h 11mph /  17.7km/h 88% 0.00in /  0mm 396 W/m2
12:24 64.6 °F /  18.1 °C 61 °F /  16.1 °C 29.86in /  1011.1hPa SSW 4.3mph /  6.9km/h 10mph /  16.1km/h 87.8% 0.00in /  0mm 396 W/m2
12:29 64.8 °F /  18.2 °C 60.8 °F /  16 °C 29.86in /  1011.1hPa SSW 6.7mph /  10.8km/h 13mph /  20.9km/h 87% 0.00in /  0mm 253 W/m2
12:34 64.8 °F /  18.2 °C 60.5 °F /  15.8 °C 29.86in /  1011.1hPa SSW 4.7mph /  7.6km/h 13mph /  20.9km/h 86% 0.00in /  0mm 243 W/m2
12:39 64.8 °F /  18.2 °C 60.2 °F /  15.7 °C 29.86in /  1011.1hPa SSW 7mph /  11.3km/h 15mph /  24.1km/h 85.2% 0.00in /  0mm 109 W/m2
12:44 64.8 °F /  18.2 °C 60.1 °F /  15.6 °C 29.86in /  1011.1hPa SSW 8.2mph /  13.2km/h 15mph /  24.1km/h 85% 0.00in /  0mm 146 W/m2
12:49 64.8 °F /  18.2 °C 60.1 °F /  15.6 °C 29.86in /  1011.1hPa SSW 6.8mph /  10.9km/h 15mph /  24.1km/h 85% 0.00in /  0mm 243 W/m2
12:54 64.7 °F /  18.2 °C 60 °F /  15.6 °C 29.86in /  1011.1hPa South 6.2mph /  10km/h 15mph /  24.1km/h 85% 0.00in /  0mm 202 W/m2
12:58 64.6 °F /  18.1 °C 60.1 °F /  15.6 °C 29.86in /  1011.1hPa SSW 5.7mph /  9.2km/h 14mph /  22.5km/h 85.5% 0.00in /  0mm 221 W/m2
13:04 64.6 °F /  18.1 °C 60.2 °F /  15.7 °C 29.86in /  1011.1hPa SSW 6mph /  9.7km/h 14mph /  22.5km/h 85.8% 0.00in /  0mm 302 W/m2
13:09 64.8 °F /  18.2 °C 60.2 °F /  15.7 °C 29.86in /  1011.1hPa South 8mph /  12.9km/h 15mph /  24.1km/h 85.4% 0.00in /  0mm 330 W/m2
13:14 64.9 °F /  18.3 °C 60.2 °F /  15.7 °C 29.87in /  1011.4hPa SSW 7.6mph /  12.2km/h 15mph /  24.1km/h 85% 0.00in /  0mm 406 W/m2
13:19 65.1 °F /  18.4 °C 60.2 °F /  15.7 °C 29.87in /  1011.4hPa SW 10.3mph /  16.6km/h 17mph /  27.4km/h 84.4% 0.00in /  0mm 336 W/m2
13:24 65.2 °F /  18.4 °C 60.2 °F /  15.7 °C 29.87in /  1011.4hPa SW 11.2mph /  18km/h 21mph /  33.8km/h 83.8% 0.00in /  0mm 353 W/m2
13:29 65.1 °F /  18.4 °C 59.9 °F /  15.5 °C 29.87in /  1011.4hPa SSW 12.6mph /  20.3km/h 21mph /  33.8km/h 83% 0.00in /  0mm 290 W/m2
13:34 65.1 °F /  18.4 °C 59.9 °F /  15.5 °C 29.87in /  1011.4hPa SW 8.4mph /  13.5km/h 21mph /  33.8km/h 83% 0.00in /  0mm 241 W/m2
13:39 65.3 °F /  18.5 °C 60.1 °F /  15.6 °C 29.87in /  1011.4hPa SW 10.2mph /  16.4km/h 20mph /  32.2km/h 83% 0.00in /  0mm 221 W/m2
13:44 65.1 °F /  18.4 °C 59.9 °F /  15.5 °C 29.86in /  1011.1hPa SSW 7.8mph /  12.6km/h 18mph /  29km/h 83% 0.00in /  0mm 524 W/m2
13:49 65.8 °F /  18.8 °C 60.5 °F /  15.8 °C 29.86in /  1011.1hPa SSW 9.2mph /  14.8km/h 14mph /  22.5km/h 83% 0.00in /  0mm 642 W/m2
13:54 66.5 °F /  19.2 °C 60.8 °F /  16 °C 29.86in /  1011.1hPa South 9.4mph /  15.1km/h 16mph /  25.7km/h 81.8% 0.00in /  0mm 700 W/m2
13:59 66.8 °F /  19.3 °C 60.8 °F /  16 °C 29.86in /  1011.1hPa SSW 8.5mph /  13.7km/h 17mph /  27.4km/h 80.5% 0.00in /  0mm 643 W/m2
14:04 66.9 °F /  19.4 °C 60.6 °F /  15.9 °C 29.86in /  1011.1hPa SSW 8.8mph /  14.2km/h 15mph /  24.1km/h 80% 0.00in /  0mm 473 W/m2
14:09 66.9 °F /  19.4 °C 60.6 °F /  15.9 °C 29.87in /  1011.4hPa South 6.4mph /  10.3km/h 13mph /  20.9km/h 80% 0.00in /  0mm 568 W/m2
14:13 66.9 °F /  19.4 °C 60.6 °F /  15.9 °C 29.87in /  1011.4hPa South 6mph /  9.7km/h 15mph /  24.1km/h 80% 0.00in /  0mm 568 W/m2
14:19 67.4 °F /  19.7 °C 61.1 °F /  16.2 °C 29.86in /  1011.1hPa SSW 6.1mph /  9.8km/h 11mph /  17.7km/h 80% 0.00in /  0mm 557 W/m2
14:24 67.7 °F /  19.8 °C 60.8 °F /  16 °C 29.86in /  1011.1hPa SSW 6.6mph /  10.6km/h 12mph /  19.3km/h 78.6% 0.00in /  0mm 631 W/m2
14:29 67.8 °F /  19.9 °C 60.6 °F /  15.9 °C 29.86in /  1011.1hPa SSW 8.2mph /  13.2km/h 13mph /  20.9km/h 77.8% 0.00in /  0mm 503 W/m2
14:34 67.9 °F /  19.9 °C 60.4 °F /  15.8 °C 29.86in /  1011.1hPa SSW 6.8mph /  10.9km/h 17mph /  27.4km/h 77% 0.00in /  0mm 243 W/m2
14:39 67.5 °F /  19.7 °C 60.4 °F /  15.8 °C 29.86in /  1011.1hPa South 5.3mph /  8.5km/h 11mph /  17.7km/h 78% 0.00in /  0mm 109 W/m2
14:44 67.2 °F /  19.6 °C 60.3 °F /  15.7 °C 29.86in /  1011.1hPa South 7.8mph /  12.6km/h 16mph /  25.7km/h 78.4% 0.00in /  0mm 91 W/m2
14:49 67.1 °F /  19.5 °C 60.4 °F /  15.8 °C 29.86in /  1011.1hPa SSW 6mph /  9.7km/h 13mph /  20.9km/h 79% 0.00in /  0mm 118 W/m2
14:53 67.2 °F /  19.6 °C 60.5 °F /  15.8 °C 29.87in /  1011.4hPa SW 4.5mph /  7.2km/h 12mph /  19.3km/h 79% 0.00in /  0mm 90 W/m2
14:59 67 °F /  19.4 °C 60.3 °F /  15.7 °C 29.87in /  1011.4hPa SSW 6.2mph /  10km/h 12mph /  19.3km/h 79% 0.00in /  0mm 197 W/m2
15:04 67 °F /  19.4 °C 60.4 °F /  15.8 °C 29.87in /  1011.4hPa South 7.4mph /  11.9km/h 14mph /  22.5km/h 79% 0.00in /  0mm 413 W/m2
15:09 67 °F /  19.4 °C 60.3 °F /  15.7 °C 29.85in /  1010.7hPa South 7.8mph /  12.6km/h 14mph /  22.5km/h 79% 0.00in /  0mm 288 W/m2
15:14 67.4 °F /  19.7 °C 60.7 °F /  15.9 °C 29.85in /  1010.7hPa South 6.4mph /  10.3km/h 13mph /  20.9km/h 79% 0.00in /  0mm 371 W/m2
15:19 67.5 °F /  19.7 °C 60.8 °F /  16 °C 29.85in /  1010.7hPa South 10mph /  16.1km/h 22mph /  35.4km/h 79% 0.00in /  0mm 232 W/m2
15:24 67.5 °F /  19.7 °C 60.7 °F /  15.9 °C 29.85in /  1010.7hPa South 6.2mph /  10km/h 22mph /  35.4km/h 78.8% 0.00in /  0mm 237 W/m2
15:28 67.5 °F /  19.7 °C 60.5 °F /  15.8 °C 29.85in /  1010.7hPa SSW 11.3mph /  18.2km/h 19mph /  30.6km/h 78.3% 0.00in /  0mm 274 W/m2
15:34 67.4 °F /  19.7 °C 60.6 °F /  15.9 °C 29.85in /  1010.7hPa SSW 8.4mph /  13.5km/h 18mph /  29km/h 78.6% 0.00in /  0mm 155 W/m2
15:39 67.1 °F /  19.5 °C 60.4 °F /  15.8 °C 29.85in /  1010.7hPa SSW 6.5mph /  10.5km/h 15mph /  24.1km/h 79% 0.00in /  0mm 90 W/m2
15:44 67.3 °F /  19.6 °C 60.6 °F /  15.9 °C 29.85in /  1010.7hPa SW 6mph /  9.7km/h 17mph /  27.4km/h 79% 0.00in /  0mm 130 W/m2
15:49 67.3 °F /  19.6 °C 60.6 °F /  15.9 °C 29.85in /  1010.7hPa SW 8mph /  12.9km/h 17mph /  27.4km/h 79% 0.00in /  0mm 137 W/m2
15:54 67.3 °F /  19.6 °C 60.5 °F /  15.8 °C 29.85in /  1010.7hPa SSW 9mph /  14.5km/h 18mph /  29km/h 78.6% 0.00in /  0mm 213 W/m2
15:59 67.4 °F /  19.7 °C 60.7 °F /  15.9 °C 29.86in /  1011.1hPa SSW 5.4mph /  8.7km/h 15mph /  24.1km/h 79% 0.00in /  0mm 214 W/m2
16:04 67 °F /  19.4 °C 60.4 °F /  15.8 °C 29.86in /  1011.1hPa South 8.4mph /  13.5km/h 17mph /  27.4km/h 79.2% 0.00in /  0mm 204 W/m2
16:09 66.8 °F /  19.3 °C 60.6 °F /  15.9 °C 29.86in /  1011.1hPa SSW 6.2mph /  10km/h 15mph /  24.1km/h 80.2% 0.00in /  0mm 279 W/m2
16:14 67 °F /  19.4 °C 61.1 °F /  16.2 °C 29.86in /  1011.1hPa SW 1.7mph /  2.7km/h 16mph /  25.7km/h 81% 0.00in /  0mm 218 W/m2
16:19 66.8 °F /  19.3 °C 60.9 °F /  16.1 °C 29.86in /  1011.1hPa SSW 5.3mph /  8.5km/h 15mph /  24.1km/h 81% 0.00in /  0mm 169 W/m2
16:24 66.7 °F /  19.3 °C 60.7 °F /  15.9 °C 29.86in /  1011.1hPa SSW 7.9mph /  12.7km/h 13mph /  20.9km/h 81% 0.00in /  0mm 120 W/m2
16:29 66.7 °F /  19.3 °C 60.7 °F /  15.9 °C 29.86in /  1011.1hPa SW 7.6mph /  12.2km/h 12mph /  19.3km/h 80.8% 0.00in /  0mm 142 W/m2
16:34 66.7 °F /  19.3 °C 60.4 °F /  15.8 °C 29.86in /  1011.1hPa SSW 7.1mph /  11.4km/h 21mph /  33.8km/h 80% 0.00in /  0mm 200 W/m2
16:39 66.7 °F /  19.3 °C 60.4 °F /  15.8 °C 29.86in /  1011.1hPa SW 7.4mph /  11.9km/h 15mph /  24.1km/h 80% 0.00in /  0mm 209 W/m2
16:44 67.1 °F /  19.5 °C 60.8 °F /  16 °C 29.86in /  1011.1hPa SW 9.2mph /  14.8km/h 17mph /  27.4km/h 80% 0.00in /  0mm 360 W/m2
16:49 67.4 °F /  19.7 °C 60.6 °F /  15.9 °C 29.86in /  1011.1hPa SSW 12.2mph /  19.6km/h 22mph /  35.4km/h 78.6% 0.00in /  0mm 366 W/m2
16:54 67.5 °F /  19.7 °C 60.5 °F /  15.8 °C 29.86in /  1011.1hPa SW 9.9mph /  15.9km/h 22mph /  35.4km/h 78.2% 0.00in /  0mm 490 W/m2
16:58 67.7 °F /  19.8 °C 60.6 °F /  15.9 °C 29.86in /  1011.1hPa SW 9.2mph /  14.8km/h 16mph /  25.7km/h 78% 0.00in /  0mm 392 W/m2
17:04 67.5 °F /  19.7 °C 60.4 °F /  15.8 °C 29.86in /  1011.1hPa SSW 10.2mph /  16.4km/h 19mph /  30.6km/h 78% 0.00in /  0mm 207 W/m2
17:09 67 °F /  19.4 °C 60.1 °F /  15.6 °C 29.86in /  1011.1hPa SW 10.3mph /  16.6km/h 21mph /  33.8km/h 78.2% 0.00in /  0mm 155 W/m2
17:14 67.1 °F /  19.5 °C 60.4 °F /  15.8 °C 29.86in /  1011.1hPa SW 7.5mph /  12.1km/h 17mph /  27.4km/h 79% 0.00in /  0mm 183 W/m2
17:19 67.1 °F /  19.5 °C 60.4 °F /  15.8 °C 29.86in /  1011.1hPa SW 7mph /  11.3km/h 16mph /  25.7km/h 79% 0.00in /  0mm 156 W/m2
17:24 67.1 °F /  19.5 °C 60.4 °F /  15.8 °C 29.86in /  1011.1hPa SSW 7.7mph /  12.4km/h 18mph /  29km/h 79% 0.00in /  0mm 155 W/m2
17:29 66.8 °F /  19.3 °C 60.5 °F /  15.8 °C 29.86in /  1011.1hPa SSW 7.4mph /  11.9km/h 22mph /  35.4km/h 80% 0.00in /  0mm 197 W/m2
17:34 66.7 °F /  19.3 °C 60.4 °F /  15.8 °C 29.86in /  1011.1hPa SSW 6.3mph /  10.1km/h 19mph /  30.6km/h 80% 0.00in /  0mm 144 W/m2
17:39 66.7 °F /  19.3 °C 60.4 °F /  15.8 °C 29.86in /  1011.1hPa SSW 6.6mph /  10.6km/h 11mph /  17.7km/h 80% 0.00in /  0mm 148 W/m2
17:44 66.6 °F /  19.2 °C 60.6 °F /  15.9 °C 29.86in /  1011.1hPa SW 10.8mph /  17.4km/h 19mph /  30.6km/h 80.8% 0.00in /  0mm 192 W/m2
17:49 66.5 °F /  19.2 °C 60.5 °F /  15.8 °C 29.85in /  1010.7hPa SW 7.8mph /  12.6km/h 17mph /  27.4km/h 81% 0.00in /  0mm 193 W/m2
17:54 66.6 °F /  19.2 °C 60.8 °F /  16 °C 29.85in /  1010.7hPa SW 6mph /  9.7km/h 16mph /  25.7km/h 81.4% 0.00in /  0mm 185 W/m2
17:59 66.6 °F /  19.2 °C 60.8 °F /  16 °C 29.86in /  1011.1hPa WSW 7.4mph /  11.9km/h 19mph /  30.6km/h 81.6% 0.00in /  0mm 322 W/m2
18:04 67 °F /  19.4 °C 61.1 °F /  16.2 °C 29.86in /  1011.1hPa SW 7.1mph /  11.4km/h 15mph /  24.1km/h 81% 0.00in /  0mm 580 W/m2
18:09 67.1 °F /  19.5 °C 61 °F /  16.1 °C 29.86in /  1011.1hPa SW 10mph /  16.1km/h 17mph /  27.4km/h 80.6% 0.00in /  0mm 373 W/m2
18:14 66.8 °F /  19.3 °C 61 °F /  16.1 °C 29.86in /  1011.1hPa SW 8.4mph /  13.5km/h 18mph /  29km/h 81% 0.00in /  0mm 171 W/m2
18:19 66.7 °F /  19.3 °C 60.7 °F /  15.9 °C 29.86in /  1011.1hPa SSW 5.9mph /  9.5km/h 16mph /  25.7km/h 81% 0.00in /  0mm 135 W/m2
18:24 66.6 °F /  19.2 °C 60.7 °F /  15.9 °C 29.86in /  1011.1hPa SSW 4.8mph /  7.7km/h 13mph /  20.9km/h 81.2% 0.00in /  0mm 84 W/m2
18:29 66.5 °F /  19.2 °C 60.9 °F /  16.1 °C 29.86in /  1011.1hPa SSW 7mph /  11.3km/h 16mph /  25.7km/h 82% 0.00in /  0mm 74 W/m2
18:34 66.4 °F /  19.1 °C 60.8 °F /  16 °C 29.86in /  1011.1hPa SSW 6mph /  9.7km/h 10mph /  16.1km/h 82% 0.00in /  0mm 65 W/m2
18:39 66.1 °F /  18.9 °C 60.5 °F /  15.8 °C 29.86in /  1011.1hPa SSW 9.4mph /  15.1km/h 17mph /  27.4km/h 82.2% 0.00in /  0mm 47 W/m2
18:44 66 °F /  18.9 °C 60.6 °F /  15.9 °C 29.87in /  1011.4hPa SSW 4.2mph /  6.8km/h 11mph /  17.7km/h 83% 0.00in /  0mm 33 W/m2
18:49 65.9 °F /  18.8 °C 60.6 °F /  15.9 °C 29.87in /  1011.4hPa South 6.4mph /  10.3km/h 13mph /  20.9km/h 83% 0.00in /  0mm 26 W/m2
18:54 65.8 °F /  18.8 °C 60.6 °F /  15.9 °C 29.87in /  1011.4hPa SSW 6.8mph /  10.9km/h 13mph /  20.9km/h 83% 0.00in /  0mm 23 W/m2
18:59 65.7 °F /  18.7 °C 60.5 °F /  15.8 °C 29.87in /  1011.4hPa SSW 8.4mph /  13.5km/h 15mph /  24.1km/h 83.4% 0.00in /  0mm 23 W/m2
19:04 65.5 °F /  18.6 °C 60.4 °F /  15.8 °C 29.87in /  1011.4hPa SW 5.8mph /  9.3km/h 15mph /  24.1km/h 84% 0.00in /  0mm 18 W/m2
19:09 65.5 °F /  18.6 °C 60.4 °F /  15.8 °C 29.88in /  1011.7hPa SW 6.3mph /  10.1km/h 11mph /  17.7km/h 84% 0.00in /  0mm 18 W/m2
19:14 65.4 °F /  18.6 °C 60.6 °F /  15.9 °C 29.88in /  1011.7hPa SSW 4.5mph /  7.2km/h 10mph /  16.1km/h 84.6% 0.00in /  0mm 18 W/m2
19:19 65.3 °F /  18.5 °C 60.6 °F /  15.9 °C 29.88in /  1011.7hPa SW 6.2mph /  10km/h 11mph /  17.7km/h 85% 0.00in /  0mm 14 W/m2
19:24 65.1 °F /  18.4 °C 60.4 °F /  15.8 °C 29.88in /  1011.7hPa SSW 3.5mph /  5.6km/h 10mph /  16.1km/h 85% 0.00in /  0mm 19 W/m2
19:29 65.1 °F /  18.4 °C 60.4 °F /  15.8 °C 29.88in /  1011.7hPa SSW 3.9mph /  6.3km/h 8mph /  12.9km/h 85% 0.00in /  0mm 18 W/m2
19:34 64.9 °F /  18.3 °C 60.5 °F /  15.8 °C 29.88in /  1011.7hPa SSW 3.9mph /  6.3km/h 7mph /  11.3km/h 85.6% 0.00in /  0mm 16 W/m2
19:39 64.9 °F /  18.3 °C 60.6 °F /  15.9 °C 29.88in /  1011.7hPa SSW 3.3mph /  5.3km/h 7mph /  11.3km/h 86% 0.00in /  0mm 18 W/m2
19:44 64.8 °F /  18.2 °C 60.4 °F /  15.8 °C 29.88in /  1011.7hPa SW 4mph /  6.4km/h 7mph /  11.3km/h 86% 0.00in /  0mm 14 W/m2
19:48 64.8 °F /  18.2 °C 60.6 °F /  15.9 °C 29.88in /  1011.7hPa SSW 4.7mph /  7.6km/h 8mph /  12.9km/h 86.5% 0.00in /  0mm 63 W/m2
19:54 64.8 °F /  18.2 °C 60.8 °F /  16 °C 29.88in /  1011.7hPa SW 6.5mph /  10.5km/h 11mph /  17.7km/h 87% 0.00in /  0mm 104 W/m2
19:59 64.8 °F /  18.2 °C 60.8 °F /  16 °C 29.88in /  1011.7hPa SSW 5.8mph /  9.3km/h 9mph /  14.5km/h 87% 0.00in /  0mm 127 W/m2
20:04 64.8 °F /  18.2 °C 60.8 °F /  16 °C 29.88in /  1011.7hPa SSW 5.1mph /  8.2km/h 10mph /  16.1km/h 87% 0.00in /  0mm 100 W/m2
20:09 64.8 °F /  18.2 °C 60.8 °F /  16 °C 29.88in /  1011.7hPa South 7.2mph /  11.6km/h 14mph /  22.5km/h 87% 0.00in /  0mm 69 W/m2
20:14 64.8 °F /  18.2 °C 60.8 °F /  16 °C 29.88in /  1011.7hPa SSW 4.9mph /  7.9km/h 8mph /  12.9km/h 87% 0.00in /  0mm 47 W/m2
20:19 64.8 °F /  18.2 °C 60.8 °F /  16 °C 29.88in /  1011.7hPa SSW 6mph /  9.7km/h 10mph /  16.1km/h 87% 0.00in /  0mm 19 W/m2
20:24 64.6 °F /  18.1 °C 60.6 °F /  15.9 °C 29.88in /  1011.7hPa SSW 4.9mph /  7.9km/h 10mph /  16.1km/h 87% 0.00in /  0mm 11 W/m2
20:29 64.6 °F /  18.1 °C 60.6 °F /  15.9 °C 29.88in /  1011.7hPa SSW 5mph /  8km/h 11mph /  17.7km/h 87% 0.00in /  0mm 14 W/m2
20:34 64.4 °F /  18 °C 60.4 °F /  15.8 °C 29.88in /  1011.7hPa South 3.7mph /  6km/h 9mph /  14.5km/h 87% 0.00in /  0mm 14 W/m2
20:39 64.4 °F /  18 °C 60.4 °F /  15.8 °C 29.88in /  1011.7hPa SSW 3.7mph /  6km/h 10mph /  16.1km/h 87% 0.00in /  0mm 7 W/m2
20:44 64.4 °F /  18 °C 60.6 °F /  15.9 °C 29.89in /  1012.1hPa South 4mph /  6.4km/h 10mph /  16.1km/h 87.4% 0.00in /  0mm 0 W/m2
20:49 64.4 °F /  18 °C 60.8 °F /  16 °C 29.89in /  1012.1hPa SSW 8.6mph /  13.8km/h 13mph /  20.9km/h 88% 0.00in /  0mm 0 W/m2
20:54 64.4 °F /  18 °C 60.8 °F /  16 °C 29.89in /  1012.1hPa WSW 6.6mph /  10.6km/h 12mph /  19.3km/h 88% 0.00in /  0mm 0 W/m2
20:59 64.4 °F /  18 °C 60.8 °F /  16 °C 29.89in /  1012.1hPa SSW 4.2mph /  6.8km/h 8mph /  12.9km/h 88% 0.00in /  0mm 0 W/m2
21:04 64.2 °F /  17.9 °C 60.6 °F /  15.9 °C 29.89in /  1012.1hPa SSW 4.7mph /  7.6km/h 12mph /  19.3km/h 88% 0.00in /  0mm 0 W/m2
21:08 64.2 °F /  17.9 °C 60.6 °F /  15.9 °C 29.89in /  1012.1hPa SSW 6mph /  9.7km/h 10mph /  16.1km/h 88% 0.00in /  0mm 0 W/m2
21:14 64.2 °F /  17.9 °C 60.6 °F /  15.9 °C 29.89in /  1012.1hPa SW 3.5mph /  5.6km/h 12mph /  19.3km/h 88% 0.00in /  0mm 0 W/m2
21:19 64.2 °F /  17.9 °C 60.6 °F /  15.9 °C 29.89in /  1012.1hPa SW 5.3mph /  8.5km/h 12mph /  19.3km/h 88% 0.00in /  0mm 0 W/m2
21:24 64 °F /  17.8 °C 60.4 °F /  15.8 °C 29.89in /  1012.1hPa SW 6mph /  9.7km/h 11mph /  17.7km/h 88% 0.00in /  0mm 0 W/m2
21:29 64 °F /  17.8 °C 60.5 °F /  15.8 °C 29.89in /  1012.1hPa SW 7mph /  11.3km/h 12mph /  19.3km/h 88.2% 0.00in /  0mm 0 W/m2
21:34 64 °F /  17.8 °C 60.7 °F /  15.9 °C 29.90in /  1012.4hPa SSW 4.4mph /  7.1km/h 11mph /  17.7km/h 88.8% 0.00in /  0mm 0 W/m2
21:39 63.9 °F /  17.7 °C 60.5 °F /  15.8 °C 29.90in /  1012.4hPa SW 5.3mph /  8.5km/h 10mph /  16.1km/h 88.6% 0.00in /  0mm 0 W/m2
21:44 63.9 °F /  17.7 °C 60.6 °F /  15.9 °C 29.90in /  1012.4hPa SSW 6.7mph /  10.8km/h 11mph /  17.7km/h 89% 0.00in /  0mm 0 W/m2
21:49 63.9 °F /  17.7 °C 60.6 °F /  15.9 °C 29.90in /  1012.4hPa WSW 4.8mph /  7.7km/h 9mph /  14.5km/h 89% 0.00in /  0mm 0 W/m2
21:54 63.9 °F /  17.7 °C 60.6 °F /  15.9 °C 29.90in /  1012.4hPa SW 5.6mph /  9km/h 12mph /  19.3km/h 89% 0.00in /  0mm 0 W/m2
21:59 63.9 °F /  17.7 °C 60.6 °F /  15.9 °C 29.90in /  1012.4hPa SW 6.1mph /  9.8km/h 10mph /  16.1km/h 89% 0.00in /  0mm 0 W/m2
22:04 63.9 °F /  17.7 °C 60.6 °F /  15.9 °C 29.91in /  1012.8hPa SW 4.5mph /  7.2km/h 9mph /  14.5km/h 89% 0.00in /  0mm 0 W/m2
22:09 63.9 °F /  17.7 °C 60.6 °F /  15.9 °C 29.91in /  1012.8hPa SW 3.6mph /  5.8km/h 7mph /  11.3km/h 89% 0.00in /  0mm 0 W/m2
22:14 63.9 °F /  17.7 °C 60.6 °F /  15.9 °C 29.90in /  1012.4hPa SW 3.5mph /  5.6km/h 9mph /  14.5km/h 89% 0.00in /  0mm 0 W/m2
22:19 63.9 °F /  17.7 °C 60.6 °F /  15.9 °C 29.91in /  1012.8hPa SSW 4.7mph /  7.6km/h 9mph /  14.5km/h 89% 0.00in /  0mm 0 W/m2
22:24 63.9 °F /  17.7 °C 60.6 °F /  15.9 °C 29.91in /  1012.8hPa WSW 3mph /  4.8km/h 7mph /  11.3km/h 89% 0.00in /  0mm 0 W/m2
22:29 63.9 °F /  17.7 °C 60.6 °F /  15.9 °C 29.91in /  1012.8hPa WSW 5mph /  8km/h 9mph /  14.5km/h 89% 0.00in /  0mm 0 W/m2
22:34 63.9 °F /  17.7 °C 60.6 °F /  15.9 °C 29.91in /  1012.8hPa SW 4.1mph /  6.6km/h 8mph /  12.9km/h 89% 0.00in /  0mm 0 W/m2
22:39 63.9 °F /  17.7 °C 60.6 °F /  15.9 °C 29.91in /  1012.8hPa SW 3.4mph /  5.5km/h 8mph /  12.9km/h 89% 0.00in /  0mm 0 W/m2
22:44 63.9 °F /  17.7 °C 60.7 °F /  15.9 °C 29.91in /  1012.8hPa SSW 4.5mph /  7.2km/h 10mph /  16.1km/h 89% 0.00in /  0mm 0 W/m2
22:49 64 °F /  17.8 °C 60.8 °F /  16 °C 29.91in /  1012.8hPa SW 4.8mph /  7.7km/h 7mph /  11.3km/h 89% 0.00in /  0mm 0 W/m2
22:54 64 °F /  17.8 °C 60.8 °F /  16 °C 29.91in /  1012.8hPa SW 4.2mph /  6.8km/h 8mph /  12.9km/h 89% 0.00in /  0mm 0 W/m2
22:59 64 °F /  17.8 °C 60.8 °F /  16 °C 29.91in /  1012.8hPa SW 6mph /  9.7km/h 10mph /  16.1km/h 89% 0.00in /  0mm 0 W/m2
23:04 64 °F /  17.8 °C 60.8 °F /  16 °C 29.91in /  1012.8hPa WSW 4.7mph /  7.6km/h 8mph /  12.9km/h 89% 0.00in /  0mm 0 W/m2
23:09 64 °F /  17.8 °C 60.8 °F /  16 °C 29.91in /  1012.8hPa SSW 3.2mph /  5.1km/h 9mph /  14.5km/h 89% 0.00in /  0mm 0 W/m2
23:14 64 °F /  17.8 °C 60.8 °F /  16 °C 29.91in /  1012.8hPa WSW 2.4mph /  3.9km/h 6mph /  9.7km/h 89% 0.00in /  0mm 0 W/m2
23:19 64 °F /  17.8 °C 60.8 °F /  16 °C 29.91in /  1012.8hPa SW 4.9mph /  7.9km/h 8mph /  12.9km/h 89% 0.00in /  0mm 0 W/m2
23:24 64 °F /  17.8 °C 60.8 °F /  16 °C 29.91in /  1012.8hPa SW 3.2mph /  5.1km/h 6mph /  9.7km/h 89% 0.00in /  0mm 0 W/m2
23:29 64 °F /  17.8 °C 60.8 °F /  16 °C 29.91in /  1012.8hPa West 2.8mph /  4.5km/h 6mph /  9.7km/h 89% 0.00in /  0mm 0 W/m2
23:34 64 °F /  17.8 °C 60.8 °F /  16 °C 29.92in /  1013.1hPa West 2.4mph /  3.9km/h 6mph /  9.7km/h 89% 0.00in /  0mm 0 W/m2
23:39 64 °F /  17.8 °C 60.8 °F /  16 °C 29.92in /  1013.1hPa West 1.8mph /  2.9km/h 5mph /  8km/h 89% 0.00in /  0mm 0 W/m2
23:44 64 °F /  17.8 °C 60.8 °F /  16 °C 29.92in /  1013.1hPa West 0.5mph /  0.8km/h 3mph /  4.8km/h 89% 0.00in /  0mm 0 W/m2
23:49 64 °F /  17.8 °C 60.8 °F /  16 °C 29.92in /  1013.1hPa West 1.3mph /  2.1km/h 3mph /  4.8km/h 89% 0.00in /  0mm 0 W/m2
23:54 64 °F /  17.8 °C 60.7 °F /  15.9 °C 29.92in /  1013.1hPa West 0.7mph /  1.1km/h 3mph /  4.8km/h 89% 0.00in /  0mm 0 W/m2
23:59 64 °F /  17.8 °C 60.8 °F /  16 °C 29.92in /  1013.1hPa West 0.6mph /  1km/h 3mph /  4.8km/h 89% 0.00in /  0mm 0 W/m2
Bath Spa Weather
Compliments of Weather Underground - 2 mb